Gorda, California
Current Conditions -  °F | °C
As of 12:54 AM on Friday 19 Dec 2014 (Local Time) from KMRY Reporting Station
Clear Clear  
Wind Chill: 50°   Ceiling: Unl
Heat Index: 50°   Visibility: 10mi
Dew Point: 48°   Wind: 5mph
Humidity: 93%   Direction: 80°E
Pressure: 30.19"   Gusts: NA
Location:  36.2518°N, 121.704°W
Report Text: KMRY 190854Z 08004KT 10SM CLR 10/09 A3019 RMK AO2 SLP235 T01000089 50001
Loading
Personal Weather Stations






























Interactive Weather Map New forecast layout! Learn more

10-Day Weather Forecast

Advertisements
Track Severe Weather on mobile